Forestville, NY (14062)

6:22 AM EST on December 21, 2014 (GMT -0500)
Chautauqua County-Dunkirk | Change Station
CLOSE
Current Station
Airport
Location: Dunkirk,
Elevation: 692 ft
Nearby Weather Stations

Elev 692 ft 42.49 °N, 79.28 °W | Updated 29 minutes ago

Overcast
Overcast
30 °F
Feels Like 25 °F
N
5
Wind Variable Wind from SSW

Today
High -- | Low -- °F
--% Chance of Precip.
Yesterday
High -- | Low -- °F
Precip. -- in
7:42 AM 4:46 PM
Waning Crescent, 0% visible
Pressure 30.32 in
Visibility 10.0 miles
Clouds Overcast 2200 ft
Windchill 25 °F
Dew Point 23 °F
Humidity 75%
Rainfall 0.00 in
Snow Depth Not available.
UV 0 out of 12
Pollen .10 out of 12
Air Quality Not available.
Flu Activity Not available.
METAR KDKK 211053Z AUTO 21004KT 10SM OVC022 M01/M05 A3029 RMK AO2 SLP265 T10111050 $

More Conditions Fewer Conditions

Pressure 30.32 in
Visibility 10.0 miles
Clouds Overcast 2200 ft
Windchill 25 °F
Dew Point 23 °F
Humidity 75%
Rainfall 0.00 in
Snow Depth Not available.
UV 0 out of 12
Pollen .10 out of 12
Air Quality Not available.
Flu Activity Not available.
METAR KDKK 211053Z AUTO 21004KT 10SM OVC022 M01/M05 A3029 RMK AO2 SLP265 T10111050 $

More Conditions Fewer Conditions

10-Day Weather Forecast

Almanac

Astronomy

Dec. 21, 2014 Rise Set
Actual Time
Civil Twilight
Nautical Twilight
Astronomical Twilight
Moon
Length of Visible Light
Length of Day
Tomorrow will be .
, % of the Moon is Illuminated

Today's Extremes

State Highs State Lows

Community

WunderPhotos

Upload Photos

1,779,368 photos uploaded!

WunderBlogs® & News

Nearby

Air Quality

  Air Quality AQ Index Pollutant
Not available.

Snow Depth

Station Depth Elevation

Earthquake Activity

City Distance Mag. Time & Date
Minimum magnitude displayed is 2.5.

Coastal Water Temperatures

Place Temperature

Nearby Weather Stations